RJFR/KKJ METAR and TAF weather

Enter ICAO airport designator
Station Type Date Time Source
RJFR METAR 2021/05/10 00:00 UTC NOAA

RJFR 100000Z 04006KT 9999 FEW030 SCT/// 18/13 Q1013


Station Type Date Time Source
RJFR Decoded METAR 2021/05/10 00:00 UTC NOAA

Kitakyushu Airport, Japan (RJFR) 33-50N 130-57E 6M
May 09, 2021 - 08:00 PM EDT / 2021.05.10 0000 UTC
Wind: from the NE (040 degrees) at 7 MPH (6 KT):0
Visibility: greater than 7 mile(s):0
Sky conditions: partly cloudy
Temperature: 64 F (18 C)
Dew Point: 55 F (13 C)
Relative Humidity: 72%
Pressure (altimeter): 29.91 in. Hg (1013 hPa)
ob: RJFR 100000Z 04006KT 9999 FEW030 SCT/// 18/13 Q1013
cycle: 0

Station Type Date Time Source
RJFR TAF 2021/05/09 18:00 UTC NOAA

TAF RJFR 091706Z 0918/1100 04005KT 9999 FEW030 SCT045
BECMG 1002/1004 13007KT
BECMG 1009/1012 04005KT

Example: see airport list